createdAt,value
2023-04-21T00:01:41.589Z,13.80
2023-04-21T00:04:10.017Z,13.30
2023-04-21T00:06:37.429Z,13.73
2023-04-21T00:09:05.453Z,14.27
2023-04-21T00:11:32.526Z,14.05
2023-04-21T00:13:59.398Z,13.63
2023-04-21T00:16:26.347Z,13.10
2023-04-21T00:18:53.209Z,14.13
2023-04-21T00:21:20.135Z,13.68
2023-04-21T00:23:47.451Z,13.15
2023-04-21T00:26:14.365Z,14.35
2023-04-21T00:28:43.889Z,13.85
2023-04-21T00:31:10.996Z,14.30
2023-04-21T00:33:38.227Z,14.45
2023-04-21T00:36:05.490Z,14.57
2023-04-21T00:38:32.331Z,14.52
2023-04-21T00:40:59.345Z,13.75
2023-04-21T00:43:26.325Z,13.95
2023-04-21T00:45:54.763Z,13.88
2023-04-21T00:48:21.631Z,13.68
2023-04-21T00:50:48.744Z,13.85
2023-04-21T00:53:15.960Z,14.20
2023-04-21T00:55:42.989Z,14.35
2023-04-21T00:58:09.931Z,15.23
2023-04-21T01:00:38.476Z,14.60
2023-04-21T01:03:06.999Z,12.65
2023-04-21T01:05:34.280Z,14.35
2023-04-21T01:08:02.211Z,15.07
2023-04-21T01:10:29.252Z,14.25
2023-04-21T01:12:56.230Z,15.30
2023-04-21T01:15:23.394Z,14.80
2023-04-21T01:17:54.276Z,15.27
2023-04-21T01:20:21.373Z,15.73
2023-04-21T01:22:49.941Z,15.10
2023-04-21T01:25:18.980Z,15.63
2023-04-21T01:27:46.025Z,16.13
2023-04-21T01:30:13.106Z,16.05
2023-04-21T01:32:40.005Z,15.93
2023-04-21T01:35:08.576Z,17.25
2023-04-21T01:37:38.133Z,16.23
2023-04-21T01:40:07.676Z,16.70
2023-04-21T01:42:37.638Z,17.13
2023-04-21T01:45:05.060Z,16.52
2023-04-21T01:47:32.303Z,17.58
2023-04-21T01:49:59.408Z,17.08
2023-04-21T01:52:26.317Z,16.52
2023-04-21T01:54:54.614Z,17.65
2023-04-21T01:57:21.542Z,17.52
2023-04-21T01:59:50.617Z,17.63
2023-04-21T02:02:17.560Z,18.48
2023-04-21T02:04:44.573Z,18.40
2023-04-21T02:07:11.734Z,18.05
2023-04-21T02:09:40.991Z,18.45
2023-04-21T02:12:08.250Z,19.23
2023-04-21T02:14:36.839Z,19.88
2023-04-21T02:17:04.121Z,20.65
2023-04-21T02:19:31.429Z,21.50
2023-04-21T02:21:58.286Z,21.23
2023-04-21T02:24:25.531Z,21.80
2023-04-21T02:26:53.536Z,21.95
2023-04-21T02:29:20.767Z,24.33
2023-04-21T02:32:00.724Z,24.90
2023-04-21T02:34:30.399Z,27.42
2023-04-21T02:36:57.768Z,27.95
2023-04-21T02:39:26.503Z,28.75
2023-04-21T02:41:53.353Z,31.00
2023-04-21T02:44:21.251Z,32.88
2023-04-21T02:46:48.242Z,31.42
2023-04-21T02:49:15.280Z,33.40
2023-04-21T02:51:42.188Z,34.30
2023-04-21T02:54:09.156Z,36.75
2023-04-21T02:56:36.138Z,35.72
2023-04-21T02:59:03.096Z,39.63
2023-04-21T03:01:29.928Z,38.10
2023-04-21T03:03:57.253Z,37.85
2023-04-21T03:06:24.299Z,40.80
2023-04-21T03:08:52.254Z,44.60
2023-04-21T03:11:19.148Z,43.28
2023-04-21T03:13:46.279Z,45.13
2023-04-21T03:16:13.566Z,44.80
2023-04-21T03:18:40.616Z,45.50
2023-04-21T03:21:07.562Z,46.88
2023-04-21T03:23:34.560Z,47.10
2023-04-21T03:26:06.791Z,45.40
2023-04-21T03:28:34.032Z,46.72
2023-04-21T03:31:02.834Z,47.72
2023-04-21T03:33:29.778Z,47.40
2023-04-21T03:35:56.740Z,46.97
2023-04-21T03:38:23.705Z,48.60
2023-04-21T03:40:50.648Z,48.92
2023-04-21T03:43:17.567Z,49.90
2023-04-21T03:45:44.582Z,48.22
2023-04-21T03:48:11.584Z,48.08
2023-04-21T03:50:38.867Z,50.83
2023-04-21T03:53:05.792Z,50.22
2023-04-21T03:55:32.673Z,50.83
2023-04-21T03:57:59.698Z,47.35
2023-04-21T04:00:26.582Z,50.78
2023-04-21T04:02:53.692Z,49.80
2023-04-21T04:05:20.800Z,49.83
2023-04-21T04:07:47.742Z,49.45
2023-04-21T04:10:14.591Z,50.00
2023-04-21T04:12:41.596Z,50.25
2023-04-21T04:15:09.281Z,47.90
2023-04-21T04:17:36.262Z,47.28
2023-04-21T04:20:04.841Z,48.72
2023-04-21T04:22:31.822Z,47.05
2023-04-21T04:24:59.767Z,49.20
2023-04-21T04:27:28.377Z,46.63
2023-04-21T04:29:55.242Z,46.55
2023-04-21T04:32:22.131Z,45.85
2023-04-21T04:34:49.096Z,45.20
2023-04-21T04:37:16.174Z,43.78
2023-04-21T04:39:43.022Z,41.75
2023-04-21T04:42:10.117Z,41.65
2023-04-21T04:44:37.024Z,39.25
2023-04-21T04:47:04.428Z,40.17
2023-04-21T04:49:31.552Z,38.65
2023-04-21T04:51:59.835Z,36.00
2023-04-21T04:54:28.988Z,40.00
2023-04-21T04:56:56.868Z,36.75
2023-04-21T04:59:23.770Z,36.72
2023-04-21T05:01:51.563Z,37.83
2023-04-21T05:04:18.810Z,37.83
2023-04-21T05:06:45.884Z,36.50
2023-04-21T05:09:13.092Z,37.15
2023-04-21T05:11:40.052Z,35.70
2023-04-21T05:14:06.920Z,37.00
2023-04-21T05:16:34.672Z,36.67
2023-04-21T05:19:02.395Z,35.45
2023-04-21T05:21:31.326Z,34.45
2023-04-21T05:23:59.136Z,35.67
2023-04-21T05:26:27.714Z,32.85
2023-04-21T05:28:58.786Z,35.40
2023-04-21T05:31:26.397Z,33.55
2023-04-21T05:33:53.673Z,34.03
2023-04-21T05:36:20.643Z,33.45
2023-04-21T05:38:47.643Z,33.45
2023-04-21T05:41:14.621Z,33.20
2023-04-21T05:43:41.483Z,32.58
2023-04-21T05:46:11.722Z,33.45
2023-04-21T05:48:38.739Z,32.70
2023-04-21T05:51:13.439Z,32.30
2023-04-21T05:53:40.692Z,31.48
2023-04-21T05:56:09.788Z,32.72
2023-04-21T05:58:37.334Z,31.02
2023-04-21T06:01:04.450Z,31.02
2023-04-21T06:03:32.306Z,31.42
2023-04-21T06:06:04.575Z,29.63
2023-04-21T06:08:31.930Z,31.15
2023-04-21T06:10:58.759Z,30.23
2023-04-21T06:13:27.700Z,30.58
2023-04-21T06:15:55.452Z,32.58
2023-04-21T06:18:22.650Z,31.48
2023-04-21T06:20:54.095Z,31.65
2023-04-21T06:23:21.686Z,31.80
2023-04-21T06:26:04.838Z,33.55
2023-04-21T06:28:33.123Z,32.15
2023-04-21T06:31:01.592Z,34.47
2023-04-21T06:33:29.807Z,34.53
2023-04-21T06:35:56.927Z,33.33
2023-04-21T06:38:24.075Z,34.65
2023-04-21T06:40:51.184Z,35.17
2023-04-21T06:43:18.025Z,35.15
2023-04-21T06:45:44.852Z,35.63
2023-04-21T06:48:11.816Z,35.08
2023-04-21T06:50:38.738Z,34.72
2023-04-21T06:53:05.669Z,34.80
2023-04-21T06:55:32.527Z,34.00
2023-04-21T06:57:59.466Z,35.20
2023-04-21T07:00:26.370Z,34.63
2023-04-21T07:02:53.300Z,35.50
2023-04-21T07:05:20.413Z,33.00
2023-04-21T07:07:47.615Z,32.88
2023-04-21T07:10:19.164Z,32.97
2023-04-21T07:12:46.505Z,32.85
2023-04-21T07:15:13.546Z,33.38
2023-04-21T07:17:40.515Z,38.63
2023-04-21T07:20:08.164Z,44.78
2023-04-21T07:22:36.187Z,42.22
2023-04-21T07:25:07.326Z,39.80
2023-04-21T07:27:36.998Z,40.05
2023-04-21T07:30:05.358Z,38.08
2023-04-21T07:32:33.777Z,39.40
2023-04-21T07:35:02.070Z,40.95
2023-04-21T07:37:29.409Z,39.47
2023-04-21T07:39:56.362Z,41.40
2023-04-21T07:42:23.296Z,41.58
2023-04-21T07:44:50.385Z,41.83
2023-04-21T07:47:17.313Z,39.45
2023-04-21T07:49:44.299Z,40.42
2023-04-21T07:52:11.188Z,40.65
2023-04-21T07:54:38.159Z,42.60
2023-04-21T07:57:05.066Z,42.15
2023-04-21T07:59:32.010Z,46.10
2023-04-21T08:01:58.944Z,43.55
2023-04-21T08:04:26.248Z,38.95
2023-04-21T08:06:53.505Z,38.70
2023-04-21T08:09:20.664Z,39.17
2023-04-21T08:11:47.643Z,38.00
2023-04-21T08:14:15.184Z,42.40
2023-04-21T08:16:42.344Z,46.08
2023-04-21T08:19:10.316Z,49.33
2023-04-21T08:21:37.450Z,51.28
2023-04-21T08:24:04.681Z,49.13
2023-04-21T08:26:33.823Z,50.92
2023-04-21T08:29:03.467Z,50.08
2023-04-21T08:31:31.513Z,48.50
2023-04-21T08:34:02.417Z,46.15
2023-04-21T08:36:30.584Z,45.35
2023-04-21T08:38:58.347Z,45.03
2023-04-21T08:41:26.335Z,42.65
2023-04-21T08:43:53.452Z,41.53
2023-04-21T08:46:20.647Z,39.03
2023-04-21T08:48:47.989Z,36.58
2023-04-21T08:51:21.819Z,37.97
2023-04-21T08:53:48.718Z,35.85
2023-04-21T08:56:15.692Z,38.67
2023-04-21T08:58:42.671Z,42.65
2023-04-21T09:01:09.591Z,43.67
2023-04-21T09:03:36.744Z,40.60
2023-04-21T09:06:09.924Z,44.47
2023-04-21T09:08:43.554Z,44.88
2023-04-21T09:11:14.633Z,47.85
2023-04-21T09:13:43.265Z,49.92
2023-04-21T09:16:21.716Z,47.13
2023-04-21T09:18:50.607Z,45.05
2023-04-21T09:21:19.066Z,44.67
2023-04-21T09:23:51.633Z,45.42
2023-04-21T09:26:22.983Z,42.50
2023-04-21T09:28:51.619Z,26.35
2023-04-21T09:31:29.217Z,18.25
2023-04-21T09:34:01.219Z,17.38
2023-04-21T09:36:30.567Z,18.38
2023-04-21T09:39:28.869Z,17.58
2023-04-21T09:41:49.895Z,18.80
2023-04-21T09:44:18.128Z,19.70
2023-04-21T09:46:50.136Z,17.58
2023-04-21T09:49:23.240Z,17.15
2023-04-21T09:52:17.065Z,18.02
2023-04-21T09:54:43.677Z,16.70
2023-04-21T09:57:13.813Z,15.57
2023-04-21T09:59:46.084Z,15.93
2023-04-21T10:02:13.582Z,16.40
2023-04-21T10:04:43.074Z,17.33
2023-04-21T10:07:13.134Z,16.67
2023-04-21T10:09:56.739Z,17.95
2023-04-21T10:12:25.117Z,17.33
2023-04-21T10:14:56.072Z,16.30
2023-04-21T10:17:27.439Z,15.50
2023-04-21T10:19:57.339Z,16.50
2023-04-21T10:22:33.016Z,15.90
2023-04-21T10:25:03.038Z,15.80
2023-04-21T10:27:33.987Z,14.65
2023-04-21T10:32:48.807Z,14.35
2023-04-21T10:35:21.512Z,14.25
2023-04-21T10:37:50.019Z,15.30
2023-04-21T10:40:44.235Z,14.80
2023-04-21T10:43:46.621Z,15.40
2023-04-21T10:46:39.428Z,15.90
2023-04-21T10:49:10.815Z,16.52
2023-04-21T10:52:00.014Z,15.73
2023-04-21T10:54:42.930Z,15.85
2023-04-21T10:57:11.668Z,15.65
2023-04-21T10:59:38.945Z,18.38
2023-04-21T11:02:07.749Z,20.63
2023-04-21T11:04:35.418Z,22.85
2023-04-21T11:07:11.037Z,20.38
2023-04-21T11:12:08.353Z,22.60
2023-04-21T11:14:37.159Z,23.75
2023-04-21T11:17:13.901Z,22.77
2023-04-21T11:19:41.225Z,23.92
2023-04-21T11:22:08.260Z,19.10
2023-04-21T11:24:36.100Z,22.88
2023-04-21T11:27:03.329Z,17.20
2023-04-21T11:29:30.269Z,15.35
2023-04-21T11:31:59.093Z,14.85
2023-04-21T11:34:26.987Z,15.43
2023-04-21T11:36:54.128Z,14.15
2023-04-21T11:39:22.181Z,14.95
2023-04-21T11:41:51.116Z,15.80
2023-04-21T11:44:40.891Z,13.68
2023-04-21T11:47:19.591Z,14.93
2023-04-21T11:49:59.121Z,15.13
2023-04-21T11:52:34.193Z,15.10
2023-04-21T11:55:13.025Z,21.02
2023-04-21T11:57:41.252Z,14.57
2023-04-21T12:00:15.646Z,14.20
2023-04-21T12:02:44.205Z,21.23
2023-04-21T12:05:13.214Z,22.67
2023-04-21T12:07:48.606Z,21.92
2023-04-21T12:10:21.113Z,16.20
2023-04-21T12:12:48.988Z,17.50
2023-04-21T12:15:22.856Z,21.42
2023-04-21T12:17:51.822Z,21.95
2023-04-21T12:20:24.506Z,22.38
2023-04-21T12:22:52.522Z,21.63
2023-04-21T12:25:19.830Z,20.83
2023-04-21T12:27:51.070Z,22.48
2023-04-21T12:30:18.834Z,22.17
2023-04-21T12:32:47.459Z,23.08
2023-04-21T12:35:14.796Z,22.20
2023-04-21T12:37:41.678Z,23.85
2023-04-21T12:40:09.095Z,21.80
2023-04-21T12:42:38.213Z,20.23
2023-04-21T12:45:06.567Z,22.23
2023-04-21T12:47:33.817Z,23.77
2023-04-21T12:50:01.095Z,22.38
2023-04-21T12:52:28.137Z,22.90
2023-04-21T12:54:55.084Z,22.60
2023-04-21T12:57:22.269Z,22.10
2023-04-21T12:59:49.320Z,21.65
2023-04-21T13:02:16.750Z,22.27
2023-04-21T13:04:43.936Z,22.27
2023-04-21T13:07:11.237Z,22.08
2023-04-21T13:09:38.727Z,21.92
2023-04-21T13:12:05.973Z,20.10
2023-04-21T13:14:33.393Z,21.08
2023-04-21T13:17:00.371Z,21.30
2023-04-21T13:19:28.602Z,22.42
2023-04-21T13:21:56.162Z,22.67
2023-04-21T13:24:23.211Z,22.90
2023-04-21T13:26:50.277Z,24.85
2023-04-21T13:29:17.453Z,23.15
2023-04-21T13:31:44.422Z,23.27
2023-04-21T13:34:11.757Z,21.92
2023-04-21T13:36:39.121Z,21.38
2023-04-21T13:39:10.186Z,24.92
2023-04-21T13:41:37.154Z,25.60
2023-04-21T13:44:04.366Z,23.75
2023-04-21T13:46:31.579Z,26.08
2023-04-21T13:48:59.403Z,26.02
2023-04-21T13:51:26.640Z,26.15
2023-04-21T13:53:53.595Z,27.42
2023-04-21T13:56:20.662Z,26.08
2023-04-21T13:58:48.272Z,29.42
2023-04-21T14:01:15.499Z,27.08
2023-04-21T14:03:42.773Z,26.75
2023-04-21T14:06:09.877Z,26.95
2023-04-21T14:08:36.804Z,27.77
2023-04-21T14:11:04.602Z,29.20
2023-04-21T14:13:39.566Z,26.05
2023-04-21T14:16:09.556Z,29.77
2023-04-21T14:18:38.348Z,28.40
2023-04-21T14:21:05.431Z,28.05
2023-04-21T14:23:32.420Z,27.60
2023-04-21T14:25:59.563Z,28.13
2023-04-21T14:28:26.934Z,27.27
2023-04-21T14:30:53.964Z,27.98
2023-04-21T14:33:20.982Z,26.98
2023-04-21T14:35:48.226Z,29.23
2023-04-21T14:38:15.944Z,29.27
2023-04-21T14:40:42.981Z,29.75
2023-04-21T14:43:11.485Z,29.75
2023-04-21T14:45:41.080Z,32.05
2023-04-21T14:48:08.245Z,32.50
2023-04-21T14:50:35.281Z,35.15
2023-04-21T14:53:02.369Z,34.33
2023-04-21T14:55:29.542Z,34.22
2023-04-21T14:57:56.834Z,35.53
2023-04-21T15:00:26.587Z,34.10
2023-04-21T15:02:53.881Z,35.25
2023-04-21T15:05:21.536Z,36.70
2023-04-21T15:07:48.596Z,37.08
2023-04-21T15:10:15.598Z,37.65
2023-04-21T15:12:44.114Z,37.38
2023-04-21T15:15:11.435Z,33.92
2023-04-21T15:17:38.590Z,36.45
2023-04-21T15:20:06.186Z,35.85
2023-04-21T15:22:33.298Z,35.05
2023-04-21T15:25:00.345Z,35.10
2023-04-21T15:27:27.305Z,35.70
2023-04-21T15:29:54.495Z,35.53
2023-04-21T15:32:21.584Z,32.47
2023-04-21T15:34:49.200Z,33.90
2023-04-21T15:37:17.609Z,34.53
2023-04-21T15:39:44.539Z,32.60
2023-04-21T15:42:11.546Z,33.17
2023-04-21T15:44:39.516Z,34.40
2023-04-21T15:47:06.967Z,32.63
2023-04-21T15:49:34.143Z,31.98
2023-04-21T15:52:02.670Z,34.97
2023-04-21T15:54:29.859Z,32.58
2023-04-21T15:56:57.715Z,34.00
2023-04-21T15:59:26.088Z,32.67
2023-04-21T16:01:53.865Z,33.38
2023-04-21T16:04:21.139Z,33.15
2023-04-21T16:06:48.339Z,33.00
2023-04-21T16:09:15.323Z,33.72
2023-04-21T16:11:42.739Z,35.53
2023-04-21T16:14:09.784Z,36.00
2023-04-21T16:16:37.557Z,39.65
2023-04-21T16:19:04.820Z,45.45
2023-04-21T16:21:31.883Z,32.03
2023-04-21T16:23:59.072Z,32.85
2023-04-21T16:26:26.520Z,31.90
2023-04-21T16:28:56.564Z,30.15
2023-04-21T16:31:23.746Z,29.20
2023-04-21T16:33:52.561Z,30.25
2023-04-21T16:36:21.299Z,30.88
2023-04-21T16:38:48.545Z,30.08
2023-04-21T16:41:17.183Z,30.52
2023-04-21T16:43:45.501Z,31.15
2023-04-21T16:46:12.807Z,31.65
2023-04-21T16:48:39.977Z,31.85
2023-04-21T16:51:07.035Z,31.65
2023-04-21T16:53:36.196Z,32.40
2023-04-21T16:56:04.493Z,32.92
2023-04-21T16:58:31.364Z,30.48
2023-04-21T17:00:59.155Z,34.35
2023-04-21T17:03:27.620Z,32.35
2023-04-21T17:05:55.432Z,33.05
2023-04-21T17:08:22.738Z,32.13
2023-04-21T17:10:49.732Z,33.38
2023-04-21T17:13:16.639Z,13.10
2023-04-21T17:15:43.988Z,9.30
2023-04-21T17:18:10.972Z,10.23
2023-04-21T17:20:38.093Z,12.82
2023-04-21T17:23:05.518Z,12.93
2023-04-21T17:25:32.572Z,12.20
2023-04-21T17:27:59.638Z,11.10
2023-04-21T17:30:26.751Z,10.68
2023-04-21T17:33:04.159Z,10.45
2023-04-21T17:35:46.082Z,8.90
2023-04-21T17:38:19.364Z,7.55
2023-04-21T17:40:46.479Z,9.05
2023-04-21T17:43:13.478Z,8.35
2023-04-21T17:45:40.476Z,8.07
2023-04-21T17:48:07.569Z,8.57
2023-04-21T17:50:34.806Z,8.38
2023-04-21T17:53:02.027Z,8.35
2023-04-21T17:55:29.068Z,8.55
2023-04-21T17:57:56.439Z,10.05
2023-04-21T18:00:23.956Z,9.02
2023-04-21T18:02:51.138Z,9.02
2023-04-21T18:05:18.321Z,7.25
2023-04-21T18:07:45.500Z,7.53
2023-04-21T18:10:12.743Z,8.05
2023-04-21T18:12:39.852Z,9.60
2023-04-21T18:15:07.403Z,10.43
2023-04-21T18:17:36.066Z,10.48
2023-04-21T18:20:04.747Z,7.88
2023-04-21T18:22:34.887Z,8.65
2023-04-21T18:25:01.882Z,10.07
2023-04-21T18:27:28.805Z,10.38
2023-04-21T18:29:55.906Z,9.88
2023-04-21T18:32:23.088Z,9.10
2023-04-21T18:34:50.096Z,8.48
2023-04-21T18:37:17.608Z,8.40
2023-04-21T18:39:44.588Z,8.85
2023-04-21T18:42:11.432Z,9.55
2023-04-21T18:44:39.475Z,9.98
2023-04-21T18:47:06.710Z,10.50
2023-04-21T18:49:33.899Z,10.80
2023-04-21T18:52:00.867Z,10.23
2023-04-21T18:54:27.877Z,12.38
2023-04-21T18:56:54.750Z,15.52
2023-04-21T18:59:23.594Z,15.55
2023-04-21T19:01:50.859Z,15.43
2023-04-21T19:04:18.339Z,17.30
2023-04-21T19:06:45.451Z,21.35
2023-04-21T19:09:12.590Z,21.95
2023-04-21T19:11:39.921Z,22.95
2023-04-21T19:14:06.918Z,23.27
2023-04-21T19:16:34.807Z,22.50
2023-04-21T19:19:02.294Z,22.90
2023-04-21T19:21:29.766Z,23.60
2023-04-21T19:23:58.020Z,22.58
2023-04-21T19:26:25.561Z,21.10
2023-04-21T19:28:52.579Z,21.33
2023-04-21T19:31:21.693Z,23.67
2023-04-21T19:33:49.528Z,24.92
2023-04-21T19:36:16.574Z,22.45
2023-04-21T19:38:43.613Z,22.90
2023-04-21T19:41:10.586Z,22.45
2023-04-21T19:43:37.622Z,22.00
2023-04-21T19:46:04.703Z,20.85
2023-04-21T19:48:32.079Z,19.67
2023-04-21T19:50:59.021Z,19.60
2023-04-21T19:53:26.409Z,20.38
2023-04-21T19:55:53.300Z,21.10
2023-04-21T19:58:36.281Z,21.85
2023-04-21T20:01:06.487Z,21.48
2023-04-21T20:03:33.767Z,20.48
2023-04-21T20:06:01.761Z,21.38
2023-04-21T20:08:29.581Z,22.50
2023-04-21T20:10:56.769Z,24.08
2023-04-21T20:13:23.664Z,24.42
2023-04-21T20:15:50.664Z,25.45
2023-04-21T20:18:17.626Z,22.77
2023-04-21T20:20:44.690Z,23.05
2023-04-21T20:23:12.084Z,22.40
2023-04-21T20:25:39.181Z,23.58
2023-04-21T20:28:06.130Z,24.63
2023-04-21T20:30:33.131Z,26.98
2023-04-21T20:33:00.171Z,26.48
2023-04-21T20:35:27.480Z,26.58
2023-04-21T20:37:54.389Z,24.55
2023-04-21T20:40:21.770Z,25.77
2023-04-21T20:42:49.410Z,26.60
2023-04-21T20:45:17.383Z,28.08
2023-04-21T20:47:44.355Z,29.75
2023-04-21T20:50:11.411Z,29.55
2023-04-21T20:52:38.775Z,31.90
2023-04-21T20:55:06.276Z,34.45
2023-04-21T20:57:33.534Z,35.22
2023-04-21T21:00:00.492Z,34.30
2023-04-21T21:02:27.485Z,34.30
2023-04-21T21:04:54.593Z,34.28
2023-04-21T21:07:21.789Z,34.95
2023-04-21T21:09:48.703Z,34.25
2023-04-21T21:12:15.624Z,36.20
2023-04-21T21:14:42.709Z,34.35
2023-04-21T21:17:12.846Z,33.70
2023-04-21T21:19:40.137Z,35.67
2023-04-21T21:22:07.339Z,33.17
2023-04-21T21:24:34.380Z,33.70
2023-04-21T21:27:01.708Z,32.72
2023-04-21T21:29:29.625Z,34.47
2023-04-21T21:31:56.575Z,31.92
2023-04-21T21:34:23.744Z,33.08
2023-04-21T21:36:50.776Z,33.30
2023-04-21T21:39:17.717Z,34.80
2023-04-21T21:41:44.710Z,34.88
2023-04-21T21:44:11.769Z,34.97
2023-04-21T21:46:38.811Z,37.28
2023-04-21T21:49:05.803Z,35.30
2023-04-21T21:51:32.767Z,35.85
2023-04-21T21:53:59.753Z,36.00
2023-04-21T21:56:27.057Z,36.80
2023-04-21T21:58:54.463Z,35.00
2023-04-21T22:01:21.493Z,35.72
2023-04-21T22:03:48.602Z,36.08
2023-04-21T22:06:17.287Z,36.53
2023-04-21T22:08:45.572Z,35.45
2023-04-21T22:11:12.631Z,36.92
2023-04-21T22:13:39.894Z,37.80
2023-04-21T22:16:07.132Z,39.60
2023-04-21T22:18:34.314Z,36.88
2023-04-21T22:21:01.347Z,37.47
2023-04-21T22:23:28.452Z,36.33
2023-04-21T22:25:55.481Z,34.40
2023-04-21T22:28:22.490Z,33.65
2023-04-21T22:30:49.933Z,33.22
2023-04-21T22:33:16.896Z,32.05
2023-04-21T22:35:44.044Z,31.23
2023-04-21T22:38:11.028Z,30.77
2023-04-21T22:40:38.308Z,30.35
2023-04-21T22:43:06.002Z,28.90
2023-04-21T22:45:33.005Z,28.83
2023-04-21T22:48:00.026Z,28.27
2023-04-21T22:50:27.034Z,27.05
2023-04-21T22:52:54.315Z,27.92
2023-04-21T22:55:21.298Z,26.38
2023-04-21T22:57:48.758Z,26.65
2023-04-21T23:00:15.756Z,28.77
2023-04-21T23:02:42.867Z,28.08
2023-04-21T23:05:10.066Z,23.88
2023-04-21T23:07:37.067Z,23.67
2023-04-21T23:10:04.369Z,27.27
2023-04-21T23:12:31.506Z,23.48
2023-04-21T23:14:58.427Z,22.50
2023-04-21T23:17:25.475Z,22.15
2023-04-21T23:19:52.634Z,22.80
2023-04-21T23:22:19.676Z,22.40
2023-04-21T23:24:46.545Z,21.17
2023-04-21T23:27:14.063Z,20.52
2023-04-21T23:29:41.181Z,20.38
2023-04-21T23:32:08.451Z,20.63
2023-04-21T23:34:36.486Z,20.58
2023-04-21T23:37:03.473Z,19.95
2023-04-21T23:39:30.365Z,20.67
2023-04-21T23:41:57.498Z,21.33
2023-04-21T23:44:24.451Z,21.52
2023-04-21T23:46:51.737Z,21.13
2023-04-21T23:49:18.664Z,20.60
2023-04-21T23:51:45.760Z,22.98
2023-04-21T23:54:12.720Z,22.13
2023-04-21T23:56:39.681Z,22.42
2023-04-21T23:59:07.008Z,23.63
